Time;durP1;ratioP1;P1;durP2;ratioP2;P2;SDS_P1;SDS_P2;PMS_P1;PMS_P2;Temp;Humidity;BMP_temperature;BMP_pressure;BME280_temperature;BME280_humidity;BME280_pressure;Samples;Min_cycle;Max_cycle;Signal;HPM_P1;HPM_P2
2022/10/24 00:02:25;;;;;;;5.75;1.70;;;16.00;87.50;;;;;;5051391;28;20037;-34
2022/10/24 00:04:51;;;;;;;4.15;1.90;;;15.90;87.50;;;;;;5051455;28;20033;-35
2022/10/24 00:07:17;;;;;;;3.10;1.73;;;15.90;87.60;;;;;;5051261;28;20021;-38
2022/10/24 00:09:42;;;;;;;3.65;1.70;;;15.90;87.70;;;;;;5051439;28;20013;-35
2022/10/24 00:12:08;;;;;;;3.80;1.60;;;15.80;88.30;;;;;;5050253;28;20523;-35
2022/10/24 00:14:35;;;;;;;3.10;1.52;;;15.80;87.70;;;;;;5053681;28;20029;-35
2022/10/24 00:17:00;;;;;;;3.38;1.80;;;15.80;87.80;;;;;;5055275;28;20036;-37
2022/10/24 00:19:26;;;;;;;5.40;1.90;;;15.80;87.70;;;;;;5055127;28;20025;-35
2022/10/24 00:21:52;;;;;;;4.40;2.03;;;15.80;87.80;;;;;;5055252;28;20029;-37
2022/10/24 00:24:17;;;;;;;1.73;1.42;;;15.80;87.90;;;;;;5054954;28;20032;-39
2022/10/24 00:26:43;;;;;;;4.35;1.88;;;15.70;87.90;;;;;;5055076;28;20100;-34
2022/10/24 00:29:09;;;;;;;3.50;1.58;;;15.70;88.00;;;;;;5055062;28;20028;-35
2022/10/24 00:31:35;;;;;;;3.92;1.70;;;15.70;88.00;;;;;;5054983;28;20053;-35
2022/10/24 00:34:01;;;;;;;2.75;1.80;;;15.70;88.00;;;;;;5054986;28;20048;-35
2022/10/24 00:36:27;;;;;;;3.38;1.60;;;15.70;88.00;;;;;;5055310;28;20013;-35
2022/10/24 00:38:53;;;;;;;2.60;1.60;;;15.70;88.00;;;;;;5054794;28;20029;-34
2022/10/24 00:41:27;;;;;;;4.22;1.80;;;15.70;88.10;;;;;;5054921;28;20021;-36
2022/10/24 00:44:16;;;;;;;2.00;1.50;;;15.70;88.10;;;;;;5055042;28;20028;-34
2022/10/24 00:46:45;;;;;;;3.85;1.90;;;15.70;88.00;;;;;;5054709;28;20119;-35
2022/10/24 00:49:15;;;;;;;4.72;1.60;;;15.70;88.00;;;;;;5054813;28;20024;-35
2022/10/24 00:51:41;;;;;;;4.68;1.90;;;15.70;87.90;;;;;;5054602;28;20036;-35
2022/10/24 00:54:12;;;;;;;3.78;1.67;;;15.70;87.90;;;;;;5054512;28;20445;-35
2022/10/24 00:56:43;;;;;;;3.08;1.58;;;15.70;87.90;;;;;;5054489;28;20021;-35
2022/10/24 00:59:11;;;;;;;3.20;1.65;;;15.70;87.80;;;;;;5054656;28;20064;-35
2022/10/24 01:01:38;;;;;;;4.68;1.65;;;15.70;87.80;;;;;;5054301;28;20507;-35
2022/10/24 01:04:05;;;;;;;2.80;1.55;;;15.70;88.40;;;;;;5054522;28;20413;-35
2022/10/24 01:06:39;;;;;;;5.38;1.60;;;15.60;87.80;;;;;;5054485;28;20021;-35
2022/10/24 01:09:05;;;;;;;3.70;1.50;;;15.60;87.80;;;;;;5054339;28;20063;-35
2022/10/24 01:11:47;;;;;;;3.80;1.30;;;15.60;87.80;;;;;;5054255;28;20588;-35
2022/10/24 01:14:26;;;;;;;3.03;1.60;;;15.60;87.80;;;;;;5054238;28;20368;-35
2022/10/24 01:17:01;;;;;;;3.55;1.50;;;15.60;87.80;;;;;;5054066;28;20029;-33
2022/10/24 01:19:45;;;;;;;3.58;1.42;;;15.50;87.80;;;;;;5053883;28;20029;-35
2022/10/24 01:22:20;;;;;;;3.55;1.48;;;15.60;87.80;;;;;;5054202;28;20044;-35
2022/10/24 01:25:16;;;;;;;3.08;1.40;;;15.60;87.80;;;;;;5053440;28;20025;-34
2022/10/24 01:27:50;;;;;;;2.58;1.30;;;15.60;87.50;;;;;;5052641;28;20040;-35
2022/10/24 01:30:17;;;;;;;5.78;1.52;;;15.60;87.30;;;;;;5053876;28;20032;-33
2022/10/24 01:33:16;;;;;;;3.65;1.60;;;15.70;87.20;;;;;;5053759;28;20418;-30
2022/10/24 01:35:50;;;;;;;4.90;1.52;;;15.70;87.00;;;;;;5053916;28;20075;-33
2022/10/24 01:38:32;;;;;;;4.28;1.50;;;15.80;86.80;;;;;;5053705;28;20183;-33
2022/10/24 01:41:00;;;;;;;2.65;1.20;;;15.80;86.50;;;;;;5053709;28;20044;-33
2022/10/24 01:44:01;;;;;;;4.97;1.63;;;15.80;86.40;;;;;;5053721;28;20025;-32
2022/10/24 01:46:31;;;;;;;3.95;1.35;;;15.90;86.20;;;;;;5053765;28;20033;-33
2022/10/24 01:49:01;;;;;;;2.90;1.75;;;15.90;86.10;;;;;;5053599;28;20116;-33
2022/10/24 01:51:30;;;;;;;4.32;1.70;;;15.80;86.00;;;;;;5053354;28;20029;-33
2022/10/24 01:53:57;;;;;;;3.33;1.55;;;15.80;85.90;;;;;;5053542;28;20062;-32
2022/10/24 01:56:26;;;;;;;4.72;1.75;;;15.80;85.90;;;;;;5053586;28;20071;-31
2022/10/24 01:58:51;;;;;;;5.03;1.73;;;15.80;85.80;;;;;;5053604;28;20013;-32
2022/10/24 02:01:23;;;;;;;4.65;1.42;;;15.80;85.70;;;;;;5053166;28;20064;-31
2022/10/24 02:04:00;;;;;;;3.72;1.65;;;15.80;85.70;;;;;;5053267;28;20028;-33
2022/10/24 02:06:32;;;;;;;6.57;1.52;;;15.80;85.60;;;;;;5053128;28;20021;-30
2022/10/24 02:09:04;;;;;;;3.33;1.50;;;15.80;85.50;;;;;;5053073;28;20427;-32
2022/10/24 02:11:33;;;;;;;4.95;1.70;;;15.80;85.40;;;;;;5053066;28;20025;-33
2022/10/24 02:14:19;;;;;;;5.32;1.60;;;15.80;85.30;;;;;;5053140;28;20409;-32
2022/10/24 02:16:46;;;;;;;4.45;1.70;;;15.90;85.30;;;;;;5053220;28;20037;-32
2022/10/24 02:19:13;;;;;;;3.75;1.52;;;15.80;85.20;;;;;;5053129;28;20031;-31
2022/10/24 02:22:01;;;;;;;4.40;1.40;;;15.80;85.10;;;;;;5053305;28;20383;-31
2022/10/24 02:24:35;;;;;;;5.22;1.67;;;15.80;84.90;;;;;;5041160;28;20455;-30
2022/10/24 02:27:09;;;;;;;4.28;1.70;;;15.80;84.70;;;;;;5052777;28;20384;-31
2022/10/24 02:29:42;;;;;;;3.63;1.42;;;15.90;84.70;;;;;;5052805;28;20072;-32
2022/10/24 02:32:13;;;;;;;3.28;1.42;;;15.90;84.60;;;;;;5052578;28;20111;-31
2022/10/24 02:34:41;;;;;;;3.47;1.50;;;15.90;84.50;;;;;;5052781;28;20091;-31
2022/10/24 02:37:08;;;;;;;3.83;1.80;;;15.90;84.40;;;;;;5052260;28;20473;-32
2022/10/24 02:39:36;;;;;;;2.95;1.58;;;15.90;84.30;;;;;;5052440;28;20100;-32
2022/10/24 02:42:04;;;;;;;3.40;1.33;;;15.90;84.20;;;;;;5052541;28;20116;-32
2022/10/24 02:44:31;;;;;;;4.82;1.52;;;15.90;84.00;;;;;;5052609;28;20028;-32
2022/10/24 02:47:00;;;;;;;4.63;1.70;;;15.90;84.00;;;;;;5052358;28;20033;-30
2022/10/24 02:49:26;;;;;;;3.13;1.27;;;15.90;83.90;;;;;;5052283;28;20013;-32
2022/10/24 02:51:52;;;;;;;3.55;1.40;;;15.90;83.80;;;;;;5052334;28;20078;-32
2022/10/24 02:54:18;;;;;;;3.85;1.50;;;15.90;83.80;;;;;;5052326;28;20372;-31
2022/10/24 02:56:48;;;;;;;4.80;1.42;;;15.80;83.60;;;;;;5052263;28;20025;-32
2022/10/24 02:59:13;;;;;;;4.03;2.03;;;15.80;83.60;;;;;;5052400;28;20024;-32
2022/10/24 03:01:39;;;;;;;4.10;1.10;;;15.90;83.50;;;;;;5052055;28;20045;-33
2022/10/24 03:04:05;;;;;;;2.33;1.35;;;15.80;83.40;;;;;;5050937;28;20024;-32
2022/10/24 03:06:31;;;;;;;4.82;1.15;;;15.80;83.30;;;;;;5052341;28;20166;-32
2022/10/24 03:08:57;;;;;;;3.92;1.40;;;15.80;83.20;;;;;;5052070;28;20104;-31
2022/10/24 03:11:22;;;;;;;4.03;1.38;;;15.80;83.10;;;;;;5051002;28;20460;-32
2022/10/24 03:13:48;;;;;;;4.22;1.20;;;15.80;83.00;;;;;;5051720;28;20029;-32
2022/10/24 03:16:13;;;;;;;3.10;1.30;;;15.80;82.90;;;;;;5051894;28;20082;-32
2022/10/24 03:18:39;;;;;;;2.72;1.40;;;15.80;82.60;;;;;;5051926;28;20033;-34
2022/10/24 03:21:05;;;;;;;4.25;1.50;;;15.90;82.50;;;;;;5051989;28;20021;-42
2022/10/24 03:23:30;;;;;;;2.13;0.93;;;15.90;82.40;;;;;;5052017;28;20083;-32
2022/10/24 03:25:58;;;;;;;2.88;1.20;;;15.80;82.30;;;;;;5051773;28;20029;-33
2022/10/24 03:28:24;;;;;;;2.83;1.30;;;15.80;82.30;;;;;;5050405;28;20464;-34
2022/10/24 03:30:51;;;;;;;5.35;1.20;;;15.80;82.30;;;;;;5051727;28;20075;-33
2022/10/24 03:33:16;;;;;;;4.95;1.30;;;15.80;82.20;;;;;;5051752;28;20115;-32
2022/10/24 03:35:43;;;;;;;3.20;1.10;;;15.80;82.20;;;;;;5051812;28;20448;-34
2022/10/24 03:38:08;;;;;;;3.42;1.45;;;15.80;82.10;;;;;;5051487;28;20029;-31
2022/10/24 03:40:35;;;;;;;3.72;1.38;;;15.80;82.60;;;;;;5051713;28;20070;-32
2022/10/24 03:43:00;;;;;;;1.90;1.10;;;15.80;82.00;;;;;;5051723;28;20021;-33
2022/10/24 03:45:26;;;;;;;2.17;1.02;;;15.80;81.80;;;;;;5051551;28;20047;-33
2022/10/24 03:47:51;;;;;;;2.67;1.23;;;15.80;81.60;;;;;;5051561;28;20100;-33
2022/10/24 03:50:17;;;;;;;4.78;1.20;;;15.80;81.50;;;;;;5055192;28;20025;-34
2022/10/24 03:52:43;;;;;;;3.42;1.30;;;15.80;82.00;;;;;;5056265;28;20021;-32
2022/10/24 03:55:09;;;;;;;4.10;1.10;;;15.80;81.20;;;;;;5055560;28;20041;-32
2022/10/24 03:57:35;;;;;;;2.58;1.10;;;15.80;81.00;;;;;;5055605;28;20033;-35
2022/10/24 04:00:00;;;;;;;1.80;1.02;;;15.90;80.90;;;;;;5055961;28;20045;-33
2022/10/24 04:02:26;;;;;;;2.33;1.00;;;15.90;80.90;;;;;;5055515;28;20086;-33
2022/10/24 04:04:51;;;;;;;4.88;1.48;;;15.90;80.90;;;;;;5055606;28;20034;-33
2022/10/24 04:07:20;;;;;;;2.08;0.90;;;15.90;80.50;;;;;;5055558;28;20064;-32
2022/10/24 04:09:45;;;;;;;3.47;1.30;;;15.90;80.40;;;;;;5055676;28;20064;-33
2022/10/24 04:12:11;;;;;;;2.60;0.90;;;15.90;80.30;;;;;;5055834;28;20048;-33
2022/10/24 04:14:36;;;;;;;5.45;1.25;;;15.90;80.30;;;;;;5055582;28;20025;-32
2022/10/24 04:17:02;;;;;;;2.45;1.17;;;15.90;80.30;;;;;;5055538;28;20027;-36
2022/10/24 04:19:27;;;;;;;1.77;0.90;;;15.90;80.30;;;;;;5053904;28;20071;-32
2022/10/24 04:21:53;;;;;;;2.67;1.10;;;15.90;80.40;;;;;;5055042;28;20418;-34
2022/10/24 04:24:19;;;;;;;3.20;0.93;;;15.90;80.20;;;;;;5055142;28;20380;-31
2022/10/24 04:26:44;;;;;;;2.60;0.93;;;15.90;80.20;;;;;;5055137;28;20103;-33
2022/10/24 04:29:10;;;;;;;2.83;0.95;;;15.90;80.10;;;;;;5054881;28;20095;-35
2022/10/24 04:31:36;;;;;;;6.10;1.13;;;15.90;80.10;;;;;;5055074;28;20036;-33
2022/10/24 04:34:01;;;;;;;2.08;0.90;;;15.90;80.10;;;;;;5054979;28;20017;-34
2022/10/24 04:36:27;;;;;;;2.55;0.90;;;15.90;80.20;;;;;;5054821;28;20392;-34
2022/10/24 04:38:53;;;;;;;2.28;0.77;;;15.90;80.20;;;;;;5054937;28;20025;-33
2022/10/24 04:41:18;;;;;;;2.58;0.90;;;15.80;80.30;;;;;;5054662;28;20368;-33
2022/10/24 04:43:44;;;;;;;3.35;1.15;;;15.80;80.30;;;;;;5054776;28;20415;-34
2022/10/24 04:46:09;;;;;;;4.85;1.10;;;15.80;80.40;;;;;;5054695;28;20023;-33
2022/10/24 04:48:35;;;;;;;2.05;0.85;;;15.80;80.40;;;;;;5054622;28;20094;-33
2022/10/24 04:51:00;;;;;;;1.88;0.90;;;15.80;80.40;;;;;;5054902;28;20095;-34
2022/10/24 04:53:26;;;;;;;3.42;1.20;;;15.80;80.30;;;;;;5054566;28;20057;-33
2022/10/24 04:55:52;;;;;;;4.43;1.20;;;15.80;80.30;;;;;;5054544;28;20055;-38
2022/10/24 04:58:17;;;;;;;6.35;1.08;;;15.70;80.30;;;;;;5053197;28;20035;-33
2022/10/24 05:00:45;;;;;;;5.05;1.30;;;15.70;80.30;;;;;;5054111;28;20041;-36
2022/10/24 05:03:12;;;;;;;2.67;1.13;;;15.70;80.40;;;;;;5054360;28;20078;-34
2022/10/24 05:05:37;;;;;;;4.30;1.20;;;15.70;80.30;;;;;;5054214;28;20052;-34
2022/10/24 05:08:03;;;;;;;5.05;1.20;;;15.70;80.30;;;;;;5054133;28;20052;-34
2022/10/24 05:10:29;;;;;;;2.88;1.25;;;15.70;80.30;;;;;;5054062;28;20037;-33
2022/10/24 05:12:55;;;;;;;3.40;0.98;;;15.70;80.20;;;;;;5054085;28;20461;-32
2022/10/24 05:15:20;;;;;;;2.80;1.00;;;15.70;80.10;;;;;;5054055;28;20032;-36
2022/10/24 05:17:46;;;;;;;2.75;1.00;;;15.70;80.20;;;;;;5054013;28;20533;-33
2022/10/24 05:20:12;;;;;;;6.22;1.20;;;15.70;80.10;;;;;;5054223;28;20418;-33
2022/10/24 05:22:38;;;;;;;4.82;0.90;;;15.70;80.20;;;;;;5054326;28;20107;-34
2022/10/24 05:25:04;;;;;;;3.67;1.00;;;15.70;80.30;;;;;;5054320;28;20028;-34
2022/10/24 05:27:30;;;;;;;2.65;1.27;;;15.70;80.30;;;;;;5054159;28;20033;-33
2022/10/24 05:29:55;;;;;;;2.97;1.05;;;15.70;80.30;;;;;;5054148;28;20021;-33
2022/10/24 05:32:23;;;;;;;3.83;1.20;;;15.80;80.90;;;;;;5053951;28;20021;-34
2022/10/24 05:34:49;;;;;;;4.85;1.20;;;15.80;80.10;;;;;;5053867;28;20039;-36
2022/10/24 05:37:15;;;;;;;2.88;1.00;;;15.80;80.00;;;;;;5053857;28;20070;-33
2022/10/24 05:39:40;;;;;;;4.40;1.13;;;15.90;79.90;;;;;;5053865;28;20409;-34
2022/10/24 05:42:06;;;;;;;4.28;1.00;;;15.90;79.80;;;;;;5053699;28;20032;-33
2022/10/24 05:44:32;;;;;;;3.50;1.13;;;15.90;79.80;;;;;;5053662;28;20072;-34
2022/10/24 05:46:58;;;;;;;3.55;1.13;;;15.90;79.80;;;;;;5052115;28;20083;-34
2022/10/24 05:49:23;;;;;;;2.97;1.08;;;15.80;79.90;;;;;;5053400;28;20036;-34
2022/10/24 05:51:49;;;;;;;1.15;0.63;;;15.80;80.00;;;;;;5053767;28;20020;-32
2022/10/24 05:54:14;;;;;;;3.50;1.00;;;15.80;80.00;;;;;;5053367;28;20062;-30
2022/10/24 05:56:40;;;;;;;3.05;1.17;;;15.80;80.10;;;;;;5053026;28;20139;-32
2022/10/24 05:59:05;;;;;;;3.22;1.08;;;15.80;80.10;;;;;;5053080;28;20365;-32
2022/10/24 06:01:31;;;;;;;3.70;1.10;;;15.90;80.10;;;;;;5052919;28;20485;-32
2022/10/24 06:03:57;;;;;;;2.15;0.88;;;15.80;80.10;;;;;;5051834;28;20384;-31
2022/10/24 06:06:23;;;;;;;4.05;1.20;;;15.90;80.10;;;;;;5053111;28;20035;-32
2022/10/24 06:08:49;;;;;;;3.72;0.80;;;15.90;80.00;;;;;;5053097;28;20473;-33
2022/10/24 06:11:16;;;;;;;3.92;1.13;;;15.90;80.00;;;;;;5052383;28;20047;-32
2022/10/24 06:13:42;;;;;;;2.00;0.88;;;15.90;80.00;;;;;;5052870;28;20025;-32
2022/10/24 06:16:10;;;;;;;3.50;1.08;;;15.90;80.00;;;;;;5052737;28;20033;-32
2022/10/24 06:18:37;;;;;;;1.73;0.90;;;15.80;80.10;;;;;;5050622;28;20116;-32
2022/10/24 06:21:04;;;;;;;3.38;0.77;;;15.80;80.30;;;;;;5052243;28;20043;-32
2022/10/24 06:23:31;;;;;;;3.80;1.40;;;15.80;80.30;;;;;;5052451;28;20025;-31
2022/10/24 06:25:56;;;;;;;5.45;1.13;;;15.80;80.30;;;;;;5052815;28;20017;-32
2022/10/24 06:28:22;;;;;;;2.85;1.00;;;15.80;80.30;;;;;;5052618;28;20473;-33
2022/10/24 06:30:49;;;;;;;6.30;1.42;;;15.80;80.30;;;;;;5052799;28;20075;-31
2022/10/24 06:33:15;;;;;;;2.50;1.10;;;15.80;80.30;;;;;;5052288;28;20036;-33
2022/10/24 06:35:40;;;;;;;3.22;1.17;;;15.80;80.40;;;;;;5051148;28;20021;-32
2022/10/24 06:38:06;;;;;;;4.20;1.20;;;15.80;80.50;;;;;;5052584;28;20021;-33
2022/10/24 06:40:32;;;;;;;3.33;1.10;;;15.80;80.50;;;;;;5052674;28;20407;-33
2022/10/24 06:42:58;;;;;;;6.85;1.33;;;15.80;80.40;;;;;;5052572;28;20033;-33
2022/10/24 06:45:23;;;;;;;5.10;1.55;;;15.80;80.50;;;;;;5051160;28;20053;-35
2022/10/24 06:47:50;;;;;;;5.40;1.50;;;15.80;80.60;;;;;;5052534;28;20036;-32
2022/10/24 06:50:16;;;;;;;6.40;1.50;;;15.80;80.60;;;;;;5052454;28;20688;-33
2022/10/24 06:52:42;;;;;;;5.50;1.73;;;15.80;80.40;;;;;;5052486;28;20155;-33
2022/10/24 06:55:08;;;;;;;2.17;0.85;;;15.80;80.20;;;;;;5052527;28;20021;-33
2022/10/24 06:57:33;;;;;;;2.70;1.20;;;15.80;80.40;;;;;;5052143;28;20033;-46
2022/10/24 06:59:59;;;;;;;3.38;1.30;;;15.90;80.20;;;;;;5051807;28;20408;-33
2022/10/24 07:02:24;;;;;;;4.20;1.17;;;15.90;80.10;;;;;;5052041;28;20048;-33
2022/10/24 07:04:50;;;;;;;6.35;1.02;;;15.90;80.10;;;;;;5052035;28;20022;-33
2022/10/24 07:07:19;;;;;;;4.78;1.20;;;16.00;80.10;;;;;;5051959;28;20021;-33
2022/10/24 07:09:50;;;;;;;4.05;1.30;;;16.00;80.00;;;;;;5052125;28;20025;-34
2022/10/24 07:12:15;;;;;;;4.95;1.30;;;16.00;79.90;;;;;;5051931;28;20025;-43
2022/10/24 07:14:41;;;;;;;2.72;1.10;;;16.10;79.90;;;;;;5051977;28;20083;-36
2022/10/24 07:17:06;;;;;;;10.63;1.83;;;16.10;79.90;;;;;;5051860;28;20544;-32
2022/10/24 07:19:32;;;;;;;5.28;1.70;;;16.20;79.80;;;;;;5051735;28;20500;-33
2022/10/24 07:21:58;;;;;;;6.68;1.52;;;16.20;79.70;;;;;;5051634;28;20029;-32
2022/10/24 07:24:23;;;;;;;5.28;1.20;;;16.20;79.60;;;;;;5051723;28;20025;-34
2022/10/24 07:26:49;;;;;;;4.95;1.42;;;16.20;79.60;;;;;;5051496;28;20025;-33
2022/10/24 07:29:14;;;;;;;3.15;1.15;;;16.30;79.50;;;;;;5051601;28;20057;-33
2022/10/24 07:31:40;;;;;;;5.35;1.13;;;16.30;79.40;;;;;;5051815;28;20028;-33
2022/10/24 07:34:08;;;;;;;6.35;1.20;;;16.30;79.20;;;;;;5052000;28;20130;-33
2022/10/24 07:36:34;;;;;;;6.63;1.20;;;16.30;79.10;;;;;;5052169;28;20036;-34
2022/10/24 07:39:00;;;;;;;3.88;1.17;;;16.30;79.10;;;;;;5051844;28;20017;-38
2022/10/24 07:41:28;;;;;;;5.80;1.30;;;16.40;79.20;;;;;;5052148;28;20579;-34
2022/10/24 07:43:54;;;;;;;5.70;1.40;;;16.40;79.40;;;;;;5051786;28;20100;-34
2022/10/24 07:46:20;;;;;;;6.70;1.77;;;16.40;79.30;;;;;;5051767;28;20021;-32
2022/10/24 07:48:49;;;;;;;6.07;1.85;;;16.40;79.20;;;;;;5051753;28;20025;-33
2022/10/24 07:51:15;;;;;;;3.85;0.85;;;16.50;79.20;;;;;;5052032;28;20453;-33
2022/10/24 07:53:42;;;;;;;7.13;1.50;;;16.50;79.20;;;;;;5051649;28;20092;-41
2022/10/24 07:56:12;;;;;;;5.40;1.35;;;16.60;79.00;;;;;;5051670;28;20039;-34
2022/10/24 07:58:37;;;;;;;3.20;1.05;;;16.60;78.80;;;;;;5051729;28;20029;-33
2022/10/24 08:01:17;;;;;;;6.45;1.50;;;16.70;78.70;;;;;;5051335;28;20134;-34
2022/10/24 08:03:44;;;;;;;3.78;1.20;;;16.80;78.50;;;;;;5051545;28;20152;-33
2022/10/24 08:06:13;;;;;;;6.07;1.30;;;16.80;78.20;;;;;;5051396;28;20017;-33
2022/10/24 08:08:38;;;;;;;5.88;1.45;;;16.70;78.40;;;;;;5050118;28;20071;-33
2022/10/24 08:11:13;;;;;;;5.05;1.33;;;16.70;78.30;;;;;;5051634;28;20420;-34
2022/10/24 08:13:39;;;;;;;5.40;1.48;;;16.70;78.20;;;;;;5051941;28;20372;-33
2022/10/24 08:16:07;;;;;;;4.07;1.23;;;16.70;78.20;;;;;;5051719;28;20013;-35
2022/10/24 08:18:33;;;;;;;3.65;1.25;;;16.70;78.30;;;;;;5051571;28;20358;-34
2022/10/24 08:21:02;;;;;;;4.28;1.33;;;16.70;78.30;;;;;;5051448;28;20128;-34
2022/10/24 08:23:27;;;;;;;4.82;1.40;;;16.80;78.30;;;;;;5051635;28;20065;-34
2022/10/24 08:25:53;;;;;;;4.50;1.70;;;16.80;78.00;;;;;;5051385;28;20123;-33
2022/10/24 08:28:19;;;;;;;4.32;1.25;;;16.90;77.60;;;;;;5051410;28;20029;-33
2022/10/24 08:30:57;;;;;;;7.93;1.60;;;16.90;77.40;;;;;;5050247;28;20032;-34
2022/10/24 08:33:24;;;;;;;19.95;1.95;;;16.90;76.90;;;;;;5051594;28;20143;-35
2022/10/24 08:35:49;;;;;;;4.78;1.40;;;16.90;77.10;;;;;;5054071;28;20021;-32
2022/10/24 08:38:15;;;;;;;5.18;1.40;;;16.90;77.20;;;;;;5055283;28;20036;-34
2022/10/24 08:40:41;;;;;;;4.75;1.48;;;17.00;77.10;;;;;;5053915;28;20420;-33
2022/10/24 08:43:10;;;;;;;7.97;1.30;;;17.00;77.10;;;;;;5055169;28;20092;-36
2022/10/24 08:45:52;;;;;;;7.25;1.67;;;17.00;76.80;;;;;;5054976;28;20029;-35
2022/10/24 08:48:26;;;;;;;7.63;1.75;;;17.10;76.60;;;;;;5054780;28;20044;-33
2022/10/24 08:50:55;;;;;;;5.45;1.70;;;17.10;76.30;;;;;;5054156;28;20021;-33
2022/10/24 08:53:26;;;;;;;4.70;1.42;;;17.10;76.50;;;;;;5055059;28;20021;-32
2022/10/24 08:55:54;;;;;;;6.18;1.30;;;17.10;76.70;;;;;;5054914;28;20465;-33
2022/10/24 08:58:33;;;;;;;3.85;1.30;;;17.20;76.70;;;;;;5054908;28;20654;-34
2022/10/24 09:01:01;;;;;;;4.28;1.10;;;17.20;76.50;;;;;;5054655;28;20068;-33
2022/10/24 09:03:46;;;;;;;4.47;1.35;;;17.30;76.20;;;;;;5054849;28;20117;-32
2022/10/24 09:06:16;;;;;;;4.25;0.98;;;17.40;75.50;;;;;;5053261;28;20392;-34
2022/10/24 09:08:53;;;;;;;7.32;1.75;;;17.50;75.20;;;;;;5054332;28;20025;-33
2022/10/24 09:11:45;;;;;;;4.05;1.20;;;17.50;75.10;;;;;;5054522;28;20017;-33
2022/10/24 09:14:16;;;;;;;6.05;1.38;;;17.60;75.00;;;;;;5051213;28;20033;-35
2022/10/24 09:16:44;;;;;;;4.70;1.10;;;17.60;74.50;;;;;;5054015;28;20021;-33
2022/10/24 09:19:16;;;;;;;4.03;1.13;;;17.60;74.70;;;;;;5054424;28;20444;-33
2022/10/24 09:21:43;;;;;;;2.22;0.82;;;17.70;74.50;;;;;;5052704;28;20025;-33
2022/10/24 09:24:47;;;;;;;4.18;0.95;;;17.60;74.70;;;;;;5053959;28;20021;-33
2022/10/24 09:27:20;;;;;;;4.07;0.93;;;17.60;74.60;;;;;;5054097;28;20021;-33
2022/10/24 09:29:46;;;;;;;3.13;1.00;;;17.60;74.70;;;;;;5053865;28;20021;-35
2022/10/24 09:32:19;;;;;;;3.30;1.02;;;17.60;74.50;;;;;;5053648;28;20027;-33
2022/10/24 09:34:45;;;;;;;4.15;1.20;;;17.60;74.40;;;;;;5054072;28;20021;-38
2022/10/24 09:37:30;;;;;;;3.53;1.10;;;17.60;74.30;;;;;;5054038;28;20034;-34
2022/10/24 09:40:18;;;;;;;4.65;1.58;;;17.60;74.30;;;;;;5052504;28;20075;-34
2022/10/24 09:42:57;;;;;;;4.72;1.08;;;17.60;73.50;;;;;;5053895;28;20094;-34
2022/10/24 09:45:29;;;;;;;3.15;1.00;;;17.70;73.80;;;;;;5053835;28;20350;-34
2022/10/24 09:47:57;;;;;;;3.00;1.20;;;17.80;73.70;;;;;;5052740;28;20491;-35
2022/10/24 09:50:23;;;;;;;3.83;0.90;;;17.90;73.50;;;;;;5053737;28;20013;-34
2022/10/24 09:52:51;;;;;;;4.22;1.17;;;17.90;73.40;;;;;;5053778;28;20029;-32
2022/10/24 09:55:19;;;;;;;2.92;0.90;;;17.90;72.60;;;;;;5053460;28;20350;-32
2022/10/24 09:57:45;;;;;;;5.88;1.40;;;18.00;72.90;;;;;;5053573;28;20068;-32
2022/10/24 10:00:27;;;;;;;4.82;1.10;;;18.10;72.20;;;;;;5053226;28;20083;-32
2022/10/24 10:02:58;;;;;;;4.77;1.20;;;18.10;71.90;;;;;;5053788;28;20036;-33
2022/10/24 10:05:24;;;;;;;12.95;1.60;;;18.10;71.90;;;;;;5053212;28;20032;-34
2022/10/24 10:07:51;;;;;;;4.50;1.30;;;18.00;71.50;;;;;;5053436;28;20021;-34
2022/10/24 10:10:34;;;;;;;4.57;1.10;;;18.00;72.00;;;;;;5052079;28;20021;-37
2022/10/24 10:13:26;;;;;;;3.20;0.90;;;18.00;71.90;;;;;;5053380;28;20037;-34
2022/10/24 10:15:57;;;;;;;3.63;1.08;;;18.00;72.10;;;;;;5053611;28;20069;-34
2022/10/24 10:18:26;;;;;;;2.70;1.00;;;18.00;72.20;;;;;;5053504;28;20063;-34
2022/10/24 10:21:11;;;;;;;3.53;1.10;;;18.00;72.00;;;;;;5053169;28;20047;-31
2022/10/24 10:24:00;;;;;;;3.60;1.20;;;18.10;72.10;;;;;;5053248;28;20103;-34
2022/10/24 10:26:28;;;;;;;5.47;1.30;;;18.10;71.20;;;;;;5053355;28;20028;-34
2022/10/24 10:29:03;;;;;;;2.13;0.95;;;18.10;71.20;;;;;;5053319;28;20052;-34
2022/10/24 10:31:45;;;;;;;5.85;1.10;;;18.10;71.30;;;;;;5052884;28;20025;-34
2022/10/24 10:34:27;;;;;;;3.28;0.90;;;18.20;71.40;;;;;;5052822;28;20032;-33
2022/10/24 10:37:09;;;;;;;2.22;1.15;;;18.20;71.30;;;;;;5051697;28;20028;-34
2022/10/24 10:39:45;;;;;;;2.65;1.63;;;18.20;71.60;;;;;;5052806;28;20017;-34
2022/10/24 10:42:19;;;;;;;5.40;0.98;;;18.20;71.70;;;;;;5052627;28;20024;-34
2022/10/24 10:45:12;;;;;;;4.20;0.95;;;18.20;71.80;;;;;;5053057;28;20033;-34
2022/10/24 10:48:02;;;;;;;4.13;1.15;;;18.30;71.10;;;;;;5052958;28;20035;-34
2022/10/24 10:50:37;;;;;;;3.83;0.90;;;18.30;71.20;;;;;;5052978;28;20032;-33
2022/10/24 10:53:24;;;;;;;4.30;1.20;;;18.30;71.40;;;;;;5052563;28;20017;-34
2022/10/24 10:56:19;;;;;;;4.95;1.00;;;18.30;71.50;;;;;;5052619;28;20667;-34
2022/10/24 10:59:11;;;;;;;63.65;5.45;;;18.30;71.30;;;;;;5052347;28;20444;-35
2022/10/24 11:02:13;;;;;;;6.25;1.50;;;18.30;71.30;;;;;;5052371;28;20063;-35
2022/10/24 11:05:34;;;;;;;3.70;1.10;;;18.30;70.90;;;;;;5052585;28;20041;-34
2022/10/24 11:08:14;;;;;;;2.35;0.88;;;18.30;70.50;;;;;;5013449;28;20059;-34
2022/10/24 11:10:46;;;;;;;2.50;0.80;;;18.30;70.60;;;;;;5052547;28;20039;-34
2022/10/24 11:13:22;;;;;;;4.18;1.10;;;18.40;69.80;;;;;;5052461;28;20083;-34
2022/10/24 11:15:54;;;;;;;2.78;0.85;;;18.40;69.50;;;;;;5052920;28;20040;-34
2022/10/24 11:18:36;;;;;;;2.03;0.70;;;18.50;69.90;;;;;;5052721;28;20029;-34
2022/10/24 11:21:10;;;;;;;5.40;0.93;;;18.50;70.00;;;;;;5052369;28;20021;-34
2022/10/24 11:24:27;;;;;;;2.78;0.80;;;18.60;70.00;;;;;;5052328;28;20032;-35
2022/10/24 11:27:14;;;;;;;3.60;0.88;;;18.70;70.10;;;;;;5040027;28;20041;-36
2022/10/24 11:30:06;;;;;;;2.28;0.90;;;18.70;69.80;;;;;;5050749;28;20119;-34
2022/10/24 11:32:52;;;;;;;3.42;1.20;;;18.70;69.80;;;;;;5052115;28;20027;-34
2022/10/24 11:35:29;;;;;;;3.35;0.80;;;18.70;69.40;;;;;;5052196;28;20025;-35
2022/10/24 11:38:22;;;;;;;5.40;0.80;;;18.60;69.20;;;;;;5052279;28;20678;-34
2022/10/24 11:40:54;;;;;;;5.82;1.00;;;18.60;69.20;;;;;;5051085;28;20080;-33
2022/10/24 11:43:28;;;;;;;1.95;0.88;;;18.60;69.40;;;;;;5051911;28;20052;-34
2022/10/24 11:46:11;;;;;;;2.72;1.05;;;18.60;69.20;;;;;;5052219;28;20025;-34
2022/10/24 11:48:39;;;;;;;;;;;18.60;69.10;;;;;;5052278;28;20093;-35
2022/10/24 11:51:16;;;;;;;2.85;0.90;;;18.60;69.00;;;;;;5052319;28;20301;-34
2022/10/24 11:53:45;;;;;;;5.85;1.15;;;18.60;69.20;;;;;;5051954;28;20592;-34
2022/10/24 11:56:22;;;;;;;2.53;1.10;;;18.60;68.80;;;;;;5052030;28;20144;-34
2022/10/24 11:58:57;;;;;;;4.10;1.00;;;18.50;69.00;;;;;;5052008;28;20041;-35
2022/10/24 12:01:48;;;;;;;2.83;0.85;;;18.50;68.90;;;;;;5050423;28;20063;-35
2022/10/24 12:04:22;;;;;;;2.92;0.95;;;18.40;69.20;;;;;;5050569;28;20048;-34
2022/10/24 12:06:49;;;;;;;3.47;0.82;;;18.30;69.60;;;;;;5051779;28;20137;-38
2022/10/24 12:09:34;;;;;;;3.65;0.80;;;18.20;69.70;;;;;;5052188;28;20392;-36
2022/10/24 12:12:10;;;;;;;3.85;1.13;;;18.20;70.00;;;;;;5055763;28;20082;-32
2022/10/24 12:14:48;;;;;;;1.90;0.80;;;18.20;70.20;;;;;;5055996;28;20029;-35
2022/10/24 12:17:20;;;;;;;3.13;1.00;;;18.30;70.50;;;;;;5055957;28;20087;-38
2022/10/24 12:19:47;;;;;;;3.75;1.00;;;18.40;70.30;;;;;;5056099;28;20033;-35
2022/10/24 12:22:36;;;;;;;3.67;0.88;;;18.40;70.30;;;;;;5055698;28;20029;-33
2022/10/24 12:25:34;;;;;;;2.53;0.63;;;18.50;70.90;;;;;;5055983;28;20483;-33
2022/10/24 12:28:07;;;;;;;3.08;0.70;;;18.50;70.30;;;;;;5053150;28;20175;-36
2022/10/24 12:30:35;;;;;;;2.47;0.80;;;18.60;70.30;;;;;;5055899;28;20035;-34
2022/10/24 12:33:06;;;;;;;3.25;1.10;;;18.60;70.00;;;;;;5055514;28;20035;-32
2022/10/24 12:35:56;;;;;;;1.70;0.70;;;18.70;70.00;;;;;;5055682;28;20029;-34
2022/10/24 12:38:27;;;;;;;5.43;1.00;;;18.70;70.10;;;;;;5055508;28;20028;-35
2022/10/24 12:41:26;;;;;;;3.90;1.08;;;18.80;70.20;;;;;;5055242;28;20036;-34
2022/10/24 12:44:32;;;;;;;3.55;1.00;;;18.80;70.10;;;;;;5055130;28;20396;-35
2022/10/24 12:46:59;;;;;;;3.75;0.90;;;18.80;70.10;;;;;;5054369;28;20037;-37
2022/10/24 12:49:34;;;;;;;4.72;1.40;;;18.70;70.10;;;;;;5054932;28;20506;-34
2022/10/24 12:52:39;;;;;;;2.53;0.82;;;18.70;70.30;;;;;;5054973;28;20469;-40
2022/10/24 12:55:30;;;;;;;2.40;0.98;;;18.70;70.40;;;;;;5053910;28;20045;-35
2022/10/24 12:57:56;;;;;;;1.52;0.93;;;18.70;70.60;;;;;;5055088;28;20095;-36
2022/10/24 13:00:32;;;;;;;2.42;0.80;;;18.60;70.90;;;;;;5054144;28;20055;-35
2022/10/24 13:03:33;;;;;;;4.13;1.10;;;18.60;71.20;;;;;;5054717;28;20431;-36
2022/10/24 13:06:18;;;;;;;5.13;1.10;;;18.70;71.30;;;;;;5052534;28;20048;-35
2022/10/24 13:09:21;;;;;;;2.83;0.93;;;18.60;71.10;;;;;;5054222;28;20122;-33
2022/10/24 13:12:05;;;;;;;3.57;1.00;;;18.60;71.40;;;;;;5052704;28;20045;-34